Time;durP1;ratioP1;P1;durP2;ratioP2;P2;SDS_P1;SDS_P2;PMS_P1;PMS_P2;Temp;Humidity;BMP_temperature;BMP_pressure;BME280_temperature;BME280_humidity;BME280_pressure;Samples;Min_cycle;Max_cycle;Signal;HPM_P1;HPM_P2
2023/10/02 00:01:53;;;;;;;10.45;6.85;;;24.20;55.00;;;;;;5035750;28;20452;-62
2023/10/02 00:04:23;;;;;;;9.85;6.20;;;24.20;55.00;;;;;;5040123;28;20036;-63
2023/10/02 00:07:07;;;;;;;9.07;6.03;;;24.20;55.70;;;;;;5043024;28;20642;-63
2023/10/02 00:09:38;;;;;;;11.02;6.13;;;24.20;55.00;;;;;;5037223;28;20025;-66
2023/10/02 00:12:11;;;;;;;10.25;6.13;;;24.20;55.10;;;;;;5020684;28;20033;-61
2023/10/02 00:14:44;;;;;;;10.20;6.13;;;24.20;55.10;;;;;;5038507;28;20040;-63
2023/10/02 00:17:14;;;;;;;9.83;6.47;;;24.20;55.10;;;;;;5032475;28;20044;-62
2023/10/02 00:19:49;;;;;;;9.50;6.15;;;24.20;55.10;;;;;;5039322;28;20041;-62
2023/10/02 00:25:19;;;;;;;8.95;5.68;;;24.20;55.10;;;;;;5041649;28;20029;-62
2023/10/02 00:27:48;;;;;;;9.32;6.35;;;24.20;55.20;;;;;;5041345;28;20083;-61
2023/10/02 00:30:20;;;;;;;10.32;6.63;;;24.20;55.10;;;;;;5007260;28;20127;-64
2023/10/02 00:32:48;;;;;;;9.00;5.95;;;24.20;55.20;;;;;;5044578;28;20329;-63
2023/10/02 00:35:14;;;;;;;9.25;6.00;;;24.20;55.20;;;;;;5037399;28;20105;-64
2023/10/02 00:37:46;;;;;;;8.82;5.60;;;24.20;55.20;;;;;;5022068;28;20104;-64
2023/10/02 00:40:30;;;;;;;8.73;5.60;;;24.20;55.20;;;;;;5033323;28;20033;-63
2023/10/02 00:43:33;;;;;;;8.85;6.05;;;24.20;55.20;;;;;;5037960;28;20084;-64
2023/10/02 00:45:44;;;;;;;10.57;6.18;;;24.20;55.20;;;;;;5022274;28;20461;-62
2023/10/02 00:48:25;;;;;;;8.50;5.97;;;24.20;55.20;;;;;;5024587;28;20033;-64
2023/10/02 00:50:58;;;;;;;10.68;6.32;;;24.20;55.20;;;;;;5032686;28;20063;-64
2023/10/02 00:53:46;;;;;;;9.50;5.95;;;24.20;55.30;;;;;;5039946;28;20090;-62
2023/10/02 00:56:28;;;;;;;9.90;6.47;;;24.20;55.20;;;;;;5004842;28;20408;-62
2023/10/02 00:59:00;;;;;;;9.18;6.13;;;24.20;55.30;;;;;;5023279;28;20108;-62
2023/10/02 01:01:35;;;;;;;8.90;5.85;;;24.10;55.20;;;;;;5007320;28;20028;-62
2023/10/02 01:04:09;;;;;;;9.32;6.38;;;24.20;55.30;;;;;;5038616;28;20120;-61
2023/10/02 01:06:54;;;;;;;8.18;5.53;;;24.10;55.20;;;;;;5009970;28;20366;-60
2023/10/02 01:09:26;;;;;;;9.18;5.80;;;24.10;55.20;;;;;;5022532;28;20045;-63
2023/10/02 01:11:57;;;;;;;8.80;5.57;;;24.20;55.30;;;;;;5022601;28;20164;-63
2023/10/02 01:17:14;;;;;;;10.95;6.45;;;24.10;55.20;;;;;;5033656;28;20159;-64
2023/10/02 01:19:53;;;;;;;9.75;5.90;;;24.10;55.30;;;;;;5032411;28;20036;-59
2023/10/02 01:22:37;;;;;;;8.98;5.65;;;24.10;55.30;;;;;;5032895;28;20057;-62
2023/10/02 01:25:12;;;;;;;10.68;5.85;;;24.10;55.20;;;;;;5017101;28;20053;-63
2023/10/02 01:27:46;;;;;;;8.75;5.95;;;24.10;55.20;;;;;;5013440;28;20090;-64
2023/10/02 01:30:16;;;;;;;9.55;6.32;;;24.10;55.20;;;;;;5025995;28;20051;-64
2023/10/02 01:33:06;;;;;;;9.73;5.95;;;24.10;55.30;;;;;;5008560;28;20031;-65
2023/10/02 01:35:40;;;;;;;7.88;5.65;;;24.10;55.20;;;;;;5027609;28;20496;-62
2023/10/02 01:38:13;;;;;;;7.82;5.38;;;24.10;55.20;;;;;;5017540;28;20381;-63
2023/10/02 01:41:04;;;;;;;9.98;6.28;;;24.10;55.30;;;;;;5041965;28;20017;-62
2023/10/02 01:43:39;;;;;;;8.80;5.90;;;24.10;55.20;;;;;;5010407;28;20037;-66
2023/10/02 01:46:06;;;;;;;8.85;5.82;;;24.10;55.30;;;;;;5023563;28;20025;-63
2023/10/02 01:48:37;;;;;;;8.18;5.47;;;24.10;55.30;;;;;;5037093;28;20401;-66
2023/10/02 01:51:20;;;;;;;9.35;6.13;;;24.10;55.30;;;;;;5024072;28;20048;-61
2023/10/02 01:53:57;;;;;;;9.20;5.70;;;24.10;55.30;;;;;;5016378;28;20056;-64
2023/10/02 01:56:26;;;;;;;8.75;5.85;;;24.10;55.20;;;;;;5015443;28;20302;-63
2023/10/02 01:58:54;;;;;;;9.23;5.57;;;24.10;55.30;;;;;;5019223;28;20112;-62
2023/10/02 02:01:21;;;;;;;8.25;5.53;;;24.10;55.20;;;;;;5019628;28;20099;-63
2023/10/02 02:03:50;;;;;;;9.15;6.60;;;24.10;55.20;;;;;;5002838;28;20052;-63
2023/10/02 02:06:20;;;;;;;9.48;6.05;;;24.10;55.20;;;;;;5019018;28;20025;-64
2023/10/02 02:09:01;;;;;;;8.95;5.93;;;24.10;55.20;;;;;;5022483;28;20091;-62
2023/10/02 02:11:30;;;;;;;7.68;5.40;;;24.10;55.20;;;;;;5040843;28;20199;-61
2023/10/02 02:14:02;;;;;;;8.90;5.82;;;24.10;55.20;;;;;;5032227;28;20044;-62
2023/10/02 02:16:33;;;;;;;9.18;6.22;;;24.10;55.20;;;;;;5024807;28;20385;-62
2023/10/02 02:19:07;;;;;;;9.35;5.40;;;24.10;55.20;;;;;;5044270;28;20044;-66
2023/10/02 02:21:33;;;;;;;8.35;5.63;;;24.00;55.10;;;;;;5044174;28;20044;-64
2023/10/02 02:24:08;;;;;;;8.98;5.95;;;24.00;55.10;;;;;;5038927;28;20033;-63
2023/10/02 02:26:37;;;;;;;9.48;5.97;;;24.10;55.20;;;;;;5041593;28;20048;-63
2023/10/02 02:29:04;;;;;;;9.48;6.18;;;24.00;55.10;;;;;;5023579;28;20040;-64
2023/10/02 02:31:32;;;;;;;9.57;6.00;;;24.00;55.10;;;;;;5025833;28;20452;-64
2023/10/02 02:34:04;;;;;;;10.05;5.60;;;24.10;55.20;;;;;;5042939;28;20098;-64
2023/10/02 02:36:35;;;;;;;8.30;5.68;;;24.00;55.10;;;;;;5023221;28;20052;-62
2023/10/02 02:39:16;;;;;;;8.35;5.47;;;24.00;55.20;;;;;;5026639;28;20071;-62
2023/10/02 02:44:44;;;;;;;9.02;5.90;;;24.00;55.20;;;;;;5039721;28;20033;-63
2023/10/02 02:47:15;;;;;;;8.57;5.40;;;24.00;55.20;;;;;;5038840;28;20088;-64
2023/10/02 02:49:48;;;;;;;8.77;5.90;;;24.00;55.20;;;;;;5020063;28;20033;-63
2023/10/02 02:52:32;;;;;;;7.20;5.35;;;24.00;55.20;;;;;;5036523;28;20456;-63
2023/10/02 02:55:12;;;;;;;8.73;5.70;;;24.00;55.20;;;;;;5021292;28;20021;-64
2023/10/02 02:57:45;;;;;;;8.63;5.85;;;24.00;55.20;;;;;;5034733;28;20033;-66
2023/10/02 03:00:29;;;;;;;8.60;5.38;;;24.00;55.20;;;;;;5041645;28;20045;-62
2023/10/02 03:03:00;;;;;;;7.00;5.30;;;24.00;55.20;;;;;;5039451;28;20030;-64
2023/10/02 03:05:38;;;;;;;8.45;5.57;;;24.00;55.20;;;;;;5027189;28;20310;-62
2023/10/02 03:08:12;;;;;;;8.55;5.85;;;24.00;55.20;;;;;;5043042;28;20048;-63
2023/10/02 03:10:40;;;;;;;8.48;5.50;;;24.00;55.20;;;;;;5023239;28;20107;-62
2023/10/02 03:13:16;;;;;;;8.48;5.35;;;24.00;55.20;;;;;;5042097;28;20074;-63
2023/10/02 03:15:46;;;;;;;8.38;5.22;;;24.00;55.20;;;;;;5023684;28;20405;-63
2023/10/02 03:18:31;;;;;;;8.30;5.53;;;24.00;55.20;;;;;;5043795;28;20098;-64
2023/10/02 03:21:14;;;;;;;8.93;5.82;;;23.90;55.20;;;;;;5039534;28;20192;-63
2023/10/02 03:23:43;;;;;;;10.38;6.30;;;24.00;55.20;;;;;;5035143;28;20033;-62
2023/10/02 03:29:02;;;;;;;9.05;5.68;;;24.00;55.20;;;;;;5037470;28;20432;-65
2023/10/02 03:31:43;;;;;;;8.30;5.65;;;24.00;55.20;;;;;;5023615;28;21748;-64
2023/10/02 03:34:29;;;;;;;8.48;5.68;;;24.00;55.20;;;;;;5045430;28;20124;-63
2023/10/02 03:36:59;;;;;;;7.60;5.50;;;24.00;55.20;;;;;;5037446;28;20036;-66
2023/10/02 03:42:21;;;;;;;7.68;5.72;;;23.90;55.10;;;;;;5028154;28;20033;-64
2023/10/02 03:44:50;;;;;;;8.10;5.40;;;24.00;55.20;;;;;;5038124;28;20025;-64
2023/10/02 03:47:16;;;;;;;9.57;5.93;;;23.90;55.10;;;;;;5045470;28;21652;-64
2023/10/02 03:49:43;;;;;;;9.55;5.93;;;23.90;55.10;;;;;;5041940;28;20095;-65
2023/10/02 03:52:10;;;;;;;8.40;5.80;;;23.90;55.10;;;;;;5038536;28;20343;-63
2023/10/02 03:54:35;;;;;;;8.60;5.28;;;23.90;55.10;;;;;;5018908;28;20029;-61
2023/10/02 03:57:02;;;;;;;8.38;5.85;;;23.90;55.10;;;;;;5037489;28;20114;-62
2023/10/02 03:59:32;;;;;;;9.00;5.65;;;23.90;55.10;;;;;;5038455;28;20029;-62
2023/10/02 04:04:46;;;;;;;8.65;5.68;;;23.90;55.00;;;;;;5043577;28;20112;-64
2023/10/02 04:07:12;;;;;;;8.40;5.70;;;23.90;55.00;;;;;;5038293;28;20033;-61
2023/10/02 04:09:38;;;;;;;8.15;5.65;;;23.90;55.00;;;;;;5040190;28;20021;-65
2023/10/02 04:12:05;;;;;;;9.30;5.45;;;23.90;55.00;;;;;;5039767;28;20081;-65
2023/10/02 04:14:31;;;;;;;8.02;5.43;;;23.90;55.00;;;;;;5040606;28;20092;-64
2023/10/02 04:19:51;;;;;;;7.55;5.10;;;23.90;55.00;;;;;;5039467;28;20102;-65
2023/10/02 04:22:25;;;;;;;7.97;5.32;;;23.80;55.00;;;;;;5020098;28;20029;-65
2023/10/02 04:25:03;;;;;;;9.60;5.63;;;23.90;55.00;;;;;;5039940;28;20017;-66
2023/10/02 04:32:48;;;;;;;8.25;5.30;;;23.80;54.90;;;;;;5041383;28;20464;-61
2023/10/02 04:38:09;;;;;;;9.25;5.50;;;23.80;55.00;;;;;;5039383;28;19909;-61
2023/10/02 04:40:52;;;;;;;8.65;5.57;;;23.80;55.00;;;;;;5036548;28;20025;-64
2023/10/02 04:43:19;;;;;;;9.77;6.20;;;23.80;55.60;;;;;;5042272;28;20341;-65
2023/10/02 04:45:52;;;;;;;10.45;5.15;;;23.80;55.00;;;;;;5024189;28;20033;-65
2023/10/02 04:48:26;;;;;;;6.95;5.13;;;23.80;55.00;;;;;;5042676;28;20152;-65
2023/10/02 04:50:56;;;;;;;8.48;5.50;;;23.80;55.00;;;;;;5019303;28;20040;-65
2023/10/02 04:53:22;;;;;;;8.93;5.70;;;23.80;55.00;;;;;;5039934;28;20033;-64
2023/10/02 04:56:07;;;;;;;8.55;5.22;;;23.80;55.00;;;;;;5043090;28;20033;-66
2023/10/02 04:58:48;;;;;;;8.80;5.70;;;23.80;55.00;;;;;;5008775;28;20040;-63
2023/10/02 05:01:41;;;;;;;7.88;5.20;;;23.80;55.60;;;;;;5042206;28;20235;-66
2023/10/02 05:04:08;;;;;;;9.57;5.87;;;23.80;55.00;;;;;;5020913;28;20112;-65
2023/10/02 05:06:52;;;;;;;9.27;5.60;;;23.80;55.00;;;;;;5013356;28;20438;-63
2023/10/02 05:09:25;;;;;;;8.57;5.53;;;23.80;55.10;;;;;;5018466;28;20057;-63
2023/10/02 05:12:04;;;;;;;7.72;5.28;;;23.80;55.00;;;;;;5035992;28;20065;-63
2023/10/02 05:14:33;;;;;;;8.75;5.55;;;23.80;55.00;;;;;;5032963;28;20036;-66
2023/10/02 05:17:16;;;;;;;8.93;5.35;;;23.80;55.00;;;;;;5038192;28;20040;-66
2023/10/02 05:22:32;;;;;;;7.47;5.05;;;23.80;54.90;;;;;;5039087;28;20036;-66
2023/10/02 05:24:59;;;;;;;8.07;5.25;;;23.80;54.90;;;;;;5043414;28;20428;-65
2023/10/02 05:27:30;;;;;;;8.30;5.40;;;23.80;54.90;;;;;;5032316;28;20056;-63
2023/10/02 05:30:00;;;;;;;8.20;5.10;;;23.80;54.90;;;;;;5038514;28;20040;-64
2023/10/02 05:32:35;;;;;;;8.60;5.25;;;23.80;54.90;;;;;;5022631;28;20037;-62
2023/10/02 05:37:40;;;;;;;8.02;5.68;;;23.80;54.80;;;;;;5041208;28;20111;-63
2023/10/02 05:40:58;;;;;;;8.07;5.07;;;23.70;54.80;;;;;;5019534;28;20021;-63
2023/10/02 05:51:09;;;;;;;8.07;5.60;;;23.80;54.90;;;;;;5043129;28;20053;-65
2023/10/02 05:53:37;;;;;;;7.70;5.28;;;23.70;54.80;;;;;;5025167;28;20040;-64
2023/10/02 05:58:36;;;;;;;10.05;6.00;;;23.70;54.80;;;;;;5022027;28;20033;-66
2023/10/02 06:01:18;;;;;;;8.60;5.63;;;23.70;55.30;;;;;;5026585;28;20401;-64
2023/10/02 06:03:56;;;;;;;7.63;5.30;;;23.70;54.90;;;;;;5043033;28;20055;-66
2023/10/02 06:06:23;;;;;;;9.07;5.68;;;23.70;54.90;;;;;;5046350;28;20074;-58
2023/10/02 06:09:12;;;;;;;11.65;6.97;;;23.70;54.90;;;;;;5025949;28;20091;-62
2023/10/02 06:14:24;;;;;;;12.35;6.78;;;23.70;54.90;;;;;;5048355;28;20404;-65
2023/10/02 06:16:52;;;;;;;10.50;6.85;;;23.70;54.90;;;;;;5043124;28;20097;-64
2023/10/02 06:19:19;;;;;;;12.93;7.20;;;23.70;54.90;;;;;;5026554;28;20037;-62
2023/10/02 06:22:00;;;;;;;12.15;6.70;;;23.70;54.90;;;;;;5044684;28;20337;-63
2023/10/02 06:24:29;;;;;;;11.07;6.05;;;23.70;54.90;;;;;;5048274;28;20037;-63
2023/10/02 06:26:59;;;;;;;10.30;6.15;;;23.70;54.90;;;;;;5020781;28;20020;-65
2023/10/02 06:29:37;;;;;;;9.90;6.22;;;23.70;54.90;;;;;;5046121;28;20465;-62
2023/10/02 06:32:24;;;;;;;9.20;5.85;;;23.70;55.00;;;;;;5022729;28;20407;-64
2023/10/02 06:34:57;;;;;;;10.27;6.10;;;23.70;55.00;;;;;;5022612;28;20440;-63
2023/10/02 06:37:30;;;;;;;9.25;5.47;;;23.70;55.00;;;;;;5022451;28;20029;-67
2023/10/02 06:40:14;;;;;;;10.88;6.47;;;23.70;55.10;;;;;;5025211;28;20186;-63
2023/10/02 06:42:48;;;;;;;11.20;6.50;;;23.70;55.10;;;;;;5041857;28;20031;-63
2023/10/02 06:45:20;;;;;;;11.25;6.10;;;23.70;55.10;;;;;;5043383;28;20027;-63
2023/10/02 06:47:50;;;;;;;9.55;6.05;;;23.70;55.20;;;;;;5043684;28;20043;-64
2023/10/02 06:50:27;;;;;;;8.82;5.70;;;23.70;55.10;;;;;;5046892;28;20032;-63
2023/10/02 06:52:54;;;;;;;10.13;5.78;;;23.70;55.10;;;;;;5042367;28;20021;-61
2023/10/02 06:55:21;;;;;;;10.25;6.20;;;23.70;55.20;;;;;;5047318;28;20092;-65
2023/10/02 06:57:53;;;;;;;11.25;6.53;;;23.80;55.20;;;;;;5043624;28;20405;-61
2023/10/02 07:00:25;;;;;;;9.23;5.97;;;23.80;55.20;;;;;;5024463;28;20116;-62
2023/10/02 07:02:57;;;;;;;11.93;6.97;;;23.80;55.20;;;;;;5046941;28;20025;-64
2023/10/02 07:05:34;;;;;;;10.75;6.78;;;23.80;55.20;;;;;;5042039;28;20029;-60
2023/10/02 07:08:17;;;;;;;10.95;6.72;;;23.70;55.20;;;;;;5040190;28;20027;-62
2023/10/02 07:10:44;;;;;;;12.30;6.60;;;23.80;55.20;;;;;;5027641;28;20037;-63
2023/10/02 07:13:20;;;;;;;11.27;6.78;;;23.80;55.20;;;;;;5041276;28;20037;-61
2023/10/02 07:15:55;;;;;;;11.27;6.47;;;23.80;55.30;;;;;;5045377;28;20028;-65
2023/10/02 07:18:35;;;;;;;10.02;6.88;;;23.80;55.90;;;;;;5026441;28;20021;-63
2023/10/02 07:21:01;;;;;;;10.27;6.55;;;23.80;55.30;;;;;;5023380;28;20055;-63
2023/10/02 07:23:30;;;;;;;13.77;7.00;;;23.80;55.30;;;;;;5026247;28;20104;-62
2023/10/02 07:25:58;;;;;;;11.80;7.20;;;23.80;55.40;;;;;;5040229;28;20102;-61
2023/10/02 07:28:25;;;;;;;10.65;6.53;;;23.80;55.40;;;;;;5045952;28;20021;-61
2023/10/02 07:30:52;;;;;;;11.57;6.72;;;23.80;55.40;;;;;;5023383;28;20048;-64
2023/10/02 07:33:21;;;;;;;9.80;6.35;;;23.80;55.40;;;;;;5046734;28;20128;-62
2023/10/02 07:35:54;;;;;;;13.85;7.20;;;23.80;55.40;;;;;;5024274;28;20040;-65
2023/10/02 07:38:30;;;;;;;10.55;6.13;;;23.80;55.40;;;;;;5050932;28;20138;-63
2023/10/02 07:41:07;;;;;;;11.27;7.20;;;23.90;55.50;;;;;;5036663;28;20037;-65
2023/10/02 07:43:34;;;;;;;9.98;6.72;;;23.80;55.40;;;;;;5044653;28;20044;-63
2023/10/02 07:46:14;;;;;;;9.95;6.80;;;23.80;55.40;;;;;;5047773;28;20036;-63
2023/10/02 07:48:41;;;;;;;11.15;6.72;;;23.90;55.50;;;;;;5047365;28;20044;-62
2023/10/02 07:51:10;;;;;;;11.27;7.22;;;23.90;55.50;;;;;;5047121;28;20037;-61
2023/10/02 07:53:40;;;;;;;13.27;7.25;;;23.80;55.50;;;;;;5044005;28;20094;-64
2023/10/02 07:56:07;;;;;;;10.80;6.97;;;23.90;55.50;;;;;;5018457;28;20085;-66
2023/10/02 07:58:35;;;;;;;12.00;7.28;;;23.90;55.60;;;;;;5019695;28;20317;-61
2023/10/02 08:01:11;;;;;;;11.60;7.43;;;23.90;55.60;;;;;;5019728;28;20037;-64
2023/10/02 08:03:45;;;;;;;13.63;7.65;;;23.90;55.60;;;;;;5016497;28;20444;-63
2023/10/02 08:06:22;;;;;;;14.52;8.30;;;23.90;55.60;;;;;;5035279;28;20028;-62
2023/10/02 08:11:37;;;;;;;12.35;7.38;;;23.90;55.60;;;;;;4997931;28;20049;-60
2023/10/02 08:14:05;;;;;;;12.10;7.20;;;23.90;55.60;;;;;;5022059;28;20039;-63
2023/10/02 08:16:33;;;;;;;11.73;7.18;;;23.90;55.60;;;;;;5024130;28;20060;-65
2023/10/02 08:19:01;;;;;;;13.45;7.53;;;23.90;55.70;;;;;;5041757;28;20162;-61
2023/10/02 08:21:48;;;;;;;10.23;7.05;;;23.90;55.70;;;;;;5041379;28;20104;-62
2023/10/02 08:24:15;;;;;;;12.38;7.45;;;23.90;55.70;;;;;;5022412;28;20341;-62
2023/10/02 08:26:45;;;;;;;11.00;7.13;;;23.90;55.70;;;;;;5041339;28;20017;-62
2023/10/02 08:29:15;;;;;;;13.63;8.10;;;24.00;55.80;;;;;;5038114;28;20036;-64
2023/10/02 08:31:49;;;;;;;13.32;7.95;;;23.90;55.70;;;;;;5043886;28;20044;-62
2023/10/02 08:34:19;;;;;;;12.73;7.30;;;23.90;55.70;;;;;;5025581;28;20044;-62
2023/10/02 08:36:48;;;;;;;12.68;7.25;;;24.00;55.80;;;;;;5046047;28;20049;-65
2023/10/02 08:39:21;;;;;;;10.82;7.30;;;24.00;55.80;;;;;;5042073;28;20293;-62
2023/10/02 08:41:51;;;;;;;11.02;6.63;;;24.00;55.80;;;;;;5024948;28;20037;-61
2023/10/02 08:44:20;;;;;;;13.35;7.40;;;24.00;55.90;;;;;;5032637;28;20400;-60
2023/10/02 08:46:48;;;;;;;12.98;7.88;;;24.00;56.00;;;;;;5034387;28;20116;-59
2023/10/02 08:49:18;;;;;;;11.75;7.07;;;24.00;56.10;;;;;;5026500;28;20091;-61
2023/10/02 08:51:50;;;;;;;12.55;6.80;;;24.10;56.10;;;;;;5045626;28;20049;-61
2023/10/02 08:54:18;;;;;;;10.80;6.88;;;24.20;56.10;;;;;;5023764;28;20341;-61
2023/10/02 08:56:44;;;;;;;12.25;7.45;;;24.30;56.00;;;;;;5024751;28;20037;-62
2023/10/02 08:59:18;;;;;;;12.02;7.10;;;24.40;55.90;;;;;;5045380;28;20033;-62
2023/10/02 09:01:48;;;;;;;12.57;7.13;;;24.50;55.90;;;;;;5044355;28;20094;-59
2023/10/02 09:04:22;;;;;;;11.98;6.68;;;24.60;55.70;;;;;;5046368;28;20086;-62
2023/10/02 09:06:49;;;;;;;9.77;6.50;;;24.70;55.60;;;;;;5043083;28;20036;-60
2023/10/02 09:11:58;;;;;;;12.20;7.60;;;24.90;55.30;;;;;;5039318;28;20128;-62
2023/10/02 09:17:21;;;;;;;12.10;7.85;;;25.00;55.00;;;;;;5050601;28;20029;-63
2023/10/02 09:19:58;;;;;;;9.57;6.50;;;25.00;54.80;;;;;;5031671;28;20017;-60
2023/10/02 09:22:25;;;;;;;12.85;7.30;;;25.00;54.70;;;;;;5051224;28;20480;-64
2023/10/02 09:25:26;;;;;;;12.55;7.47;;;25.00;54.70;;;;;;5048534;28;20131;-66
2023/10/02 09:27:57;;;;;;;11.77;7.68;;;24.90;54.60;;;;;;5048163;28;20040;-63
2023/10/02 09:33:08;;;;;;;12.57;7.55;;;24.80;54.70;;;;;;5049256;28;20037;-61
2023/10/02 09:35:42;;;;;;;11.20;7.18;;;24.90;54.90;;;;;;5048583;28;20424;-64
2023/10/02 09:38:15;;;;;;;12.15;7.18;;;24.80;54.80;;;;;;5050497;28;20055;-63
2023/10/02 09:40:56;;;;;;;11.65;7.10;;;24.70;54.80;;;;;;5049531;28;20492;-62
2023/10/02 09:43:24;;;;;;;10.75;6.75;;;24.70;54.90;;;;;;5049132;28;20051;-62
2023/10/02 09:45:58;;;;;;;11.98;7.00;;;24.70;55.00;;;;;;5047847;28;20120;-63
2023/10/02 09:51:20;;;;;;;10.70;7.15;;;24.60;55.00;;;;;;5049047;28;20041;-62
2023/10/02 09:54:17;;;;;;;10.43;6.40;;;24.60;55.00;;;;;;5046869;28;20032;-61
2023/10/02 09:57:06;;;;;;;11.20;7.30;;;24.60;55.00;;;;;;4998958;28;20033;-62
2023/10/02 09:59:48;;;;;;;12.38;7.10;;;24.60;55.10;;;;;;5050242;28;20041;-63
2023/10/02 10:10:27;;;;;;;12.38;6.82;;;24.50;55.30;;;;;;5047223;28;20108;-64
2023/10/02 10:12:58;;;;;;;11.95;7.25;;;24.50;55.30;;;;;;5028893;28;20302;-61
2023/10/02 10:15:25;;;;;;;12.82;7.05;;;24.50;55.30;;;;;;5046259;28;20405;-65
2023/10/02 10:17:56;;;;;;;11.90;7.53;;;24.50;55.40;;;;;;5044937;28;20038;-65
2023/10/02 10:20:25;;;;;;;9.82;6.63;;;24.50;55.40;;;;;;5048641;28;20140;-64
2023/10/02 10:22:51;;;;;;;11.15;7.03;;;24.40;55.40;;;;;;5049876;28;20036;-61
2023/10/02 10:27:54;;;;;;;10.70;6.90;;;24.40;55.40;;;;;;5040847;28;20037;-62
2023/10/02 10:30:31;;;;;;;12.35;7.28;;;24.40;55.50;;;;;;5029987;28;20108;-63
2023/10/02 10:35:41;;;;;;;11.48;7.43;;;24.50;55.60;;;;;;5049359;28;20414;-65
2023/10/02 10:41:00;;;;;;;11.05;6.78;;;24.50;55.70;;;;;;5049857;28;20340;-62
2023/10/02 10:44:13;;;;;;;10.80;6.63;;;24.50;55.70;;;;;;5043072;28;20405;-63
2023/10/02 10:46:16;;;;;;;10.57;6.88;;;24.50;55.80;;;;;;5030558;28;20043;-65
2023/10/02 10:48:48;;;;;;;10.45;6.35;;;24.50;55.80;;;;;;5017096;28;20173;-63
2023/10/02 10:51:27;;;;;;;12.18;7.07;;;24.50;55.90;;;;;;5033234;28;20053;-62
2023/10/02 10:54:12;;;;;;;10.40;6.57;;;24.50;55.90;;;;;;5037551;28;20056;-65
2023/10/02 10:56:45;;;;;;;13.82;7.22;;;24.50;56.00;;;;;;5047099;28;20098;-64
2023/10/02 10:59:12;;;;;;;10.47;7.03;;;24.50;56.00;;;;;;5053841;28;20032;-62
2023/10/02 11:02:09;;;;;;;10.77;6.65;;;24.50;56.00;;;;;;5051628;28;20367;-64
2023/10/02 11:04:43;;;;;;;12.05;6.70;;;24.50;56.00;;;;;;5038017;28;20037;-62
2023/10/02 11:07:29;;;;;;;11.27;6.85;;;24.50;56.10;;;;;;5018419;28;20397;-65
2023/10/02 11:10:15;;;;;;;12.45;7.60;;;24.50;56.10;;;;;;5039013;28;20095;-63
2023/10/02 11:12:54;;;;;;;11.00;7.00;;;24.50;56.10;;;;;;5024131;28;20051;-64
2023/10/02 11:18:18;;;;;;;9.82;6.47;;;24.50;56.20;;;;;;5040068;28;20029;-63
2023/10/02 11:20:50;;;;;;;13.02;7.00;;;24.60;56.90;;;;;;5038125;28;20025;-64
2023/10/02 11:23:44;;;;;;;11.05;6.78;;;24.60;56.30;;;;;;5033560;28;20033;-66
2023/10/02 11:26:14;;;;;;;10.07;6.57;;;24.60;56.40;;;;;;5041427;28;20052;-64
2023/10/02 11:28:49;;;;;;;11.85;7.07;;;24.60;56.50;;;;;;5020511;28;20039;-65
2023/10/02 11:31:29;;;;;;;11.82;7.15;;;24.60;56.50;;;;;;5036934;28;20044;-66
2023/10/02 11:34:06;;;;;;;10.98;7.00;;;24.70;56.50;;;;;;5010098;28;20046;-61
2023/10/02 11:36:34;;;;;;;10.73;6.38;;;24.80;56.40;;;;;;5002788;28;20121;-61
2023/10/02 11:39:09;;;;;;;11.30;6.70;;;24.90;56.30;;;;;;5002674;28;20026;-61
2023/10/02 11:41:39;;;;;;;10.23;6.50;;;25.00;56.20;;;;;;4997159;28;20030;-62
2023/10/02 11:44:07;;;;;;;10.68;7.13;;;25.10;56.00;;;;;;5002877;28;20136;-61
2023/10/02 11:46:34;;;;;;;11.02;6.85;;;25.20;55.90;;;;;;4995403;28;20483;-61
2023/10/02 11:49:00;;;;;;;10.43;6.80;;;25.30;55.80;;;;;;5002888;28;20040;-62
2023/10/02 11:51:28;;;;;;;10.00;6.38;;;25.40;55.60;;;;;;4996512;28;20042;-61
2023/10/02 11:53:58;;;;;;;12.32;6.93;;;25.50;55.50;;;;;;4992997;28;20152;-58
2023/10/02 11:56:26;;;;;;;10.68;7.10;;;25.60;55.40;;;;;;4991053;28;20108;-60
2023/10/02 11:58:58;;;;;;;12.75;7.68;;;25.70;55.40;;;;;;4994761;28;20125;-62
2023/10/02 12:01:29;;;;;;;10.52;6.68;;;25.80;55.40;;;;;;4995137;28;20030;-62
2023/10/02 12:03:57;;;;;;;11.45;6.78;;;25.90;55.30;;;;;;4997116;28;20140;-61
2023/10/02 12:06:27;;;;;;;10.18;6.65;;;25.90;55.20;;;;;;4994703;28;20034;-57
2023/10/02 12:08:56;;;;;;;10.68;6.38;;;26.00;55.10;;;;;;4999182;28;20414;-58
2023/10/02 12:11:24;;;;;;;9.85;6.43;;;26.00;55.00;;;;;;4998542;28;20577;-63
2023/10/02 12:13:51;;;;;;;11.13;7.15;;;26.10;54.90;;;;;;4999776;28;20109;-59
2023/10/02 12:16:24;;;;;;;11.70;7.32;;;26.20;54.80;;;;;;4998528;28;20045;-61
2023/10/02 12:18:51;;;;;;;11.98;6.38;;;26.30;54.60;;;;;;5003957;28;20066;-61
2023/10/02 12:21:19;;;;;;;11.90;6.95;;;26.40;54.40;;;;;;4998744;28;20033;-59
2023/10/02 12:23:46;;;;;;;10.40;6.60;;;26.50;54.20;;;;;;5001585;28;21716;-63
2023/10/02 12:26:17;;;;;;;10.38;6.10;;;26.60;54.10;;;;;;4995345;28;20123;-59
2023/10/02 12:28:44;;;;;;;10.23;6.95;;;26.70;53.90;;;;;;5001456;28;20048;-63
2023/10/02 12:31:20;;;;;;;10.38;6.78;;;26.70;53.70;;;;;;4997511;28;20144;-62
2023/10/02 12:33:53;;;;;;;11.25;6.63;;;26.80;53.50;;;;;;5011136;28;20111;-62
2023/10/02 12:36:21;;;;;;;13.23;6.57;;;26.80;53.30;;;;;;5024550;28;20030;-63
2023/10/02 12:38:52;;;;;;;11.48;6.88;;;26.90;53.30;;;;;;5031262;28;20048;-65
2023/10/02 12:41:20;;;;;;;10.50;6.25;;;26.80;53.20;;;;;;5032263;28;20416;-66
2023/10/02 12:43:55;;;;;;;11.73;6.60;;;26.80;53.30;;;;;;5031057;28;20029;-62
2023/10/02 12:46:25;;;;;;;10.40;6.00;;;26.70;53.30;;;;;;5031838;28;20337;-64
2023/10/02 12:48:51;;;;;;;10.27;6.30;;;26.70;53.50;;;;;;5031754;28;20033;-62
2023/10/02 12:51:19;;;;;;;10.88;6.35;;;26.50;53.50;;;;;;5030378;28;20029;-64
2023/10/02 12:53:45;;;;;;;10.68;6.60;;;26.50;53.70;;;;;;5032348;28;20026;-64
2023/10/02 12:56:15;;;;;;;10.77;6.75;;;26.40;53.90;;;;;;5029932;28;20090;-64
2023/10/02 12:58:41;;;;;;;11.25;6.40;;;26.30;53.90;;;;;;5032097;28;20352;-63
2023/10/02 13:01:13;;;;;;;10.65;6.75;;;26.20;54.10;;;;;;5030733;28;20053;-64
2023/10/02 13:03:42;;;;;;;10.48;6.97;;;26.20;54.30;;;;;;5024960;28;20189;-63
2023/10/02 13:06:12;;;;;;;9.65;6.28;;;26.10;55.00;;;;;;5014132;28;20036;-66
2023/10/02 13:08:44;;;;;;;11.27;6.95;;;26.10;54.60;;;;;;5029005;28;20048;-63
2023/10/02 13:11:18;;;;;;;13.07;6.93;;;26.00;54.70;;;;;;5031578;28;20076;-62
2023/10/02 13:13:46;;;;;;;11.40;7.03;;;26.00;54.90;;;;;;5031652;28;20046;-64
2023/10/02 13:16:15;;;;;;;11.90;7.50;;;26.00;55.10;;;;;;5032052;28;20457;-63
2023/10/02 13:18:45;;;;;;;11.55;6.90;;;25.90;55.10;;;;;;5012450;28;20474;-64
2023/10/02 13:21:19;;;;;;;12.13;7.30;;;25.90;55.30;;;;;;5032088;28;20100;-64
2023/10/02 13:23:45;;;;;;;10.35;6.45;;;25.80;55.30;;;;;;5030645;28;20025;-63
2023/10/02 13:26:15;;;;;;;10.65;6.75;;;25.80;55.50;;;;;;5028995;28;20453;-65
2023/10/02 13:28:48;;;;;;;10.20;6.50;;;25.80;55.90;;;;;;5031376;28;20057;-65
2023/10/02 13:31:17;;;;;;;11.30;7.05;;;25.80;55.70;;;;;;5031620;28;20056;-65
2023/10/02 13:33:46;;;;;;;12.23;7.20;;;25.70;55.70;;;;;;5040870;28;20040;-62
2023/10/02 13:36:22;;;;;;;12.65;8.02;;;25.70;55.90;;;;;;5033279;28;20061;-64
2023/10/02 13:38:50;;;;;;;10.90;6.70;;;25.70;55.90;;;;;;5044105;28;20482;-62
2023/10/02 13:41:17;;;;;;;12.48;7.43;;;25.70;56.10;;;;;;5051172;28;20089;-63
2023/10/02 13:43:48;;;;;;;14.07;8.07;;;25.60;56.10;;;;;;5033370;28;20025;-64
2023/10/02 13:46:17;;;;;;;11.75;7.45;;;25.60;56.20;;;;;;5017254;28;20033;-65
2023/10/02 13:48:52;;;;;;;12.02;7.93;;;25.60;56.30;;;;;;5051583;28;20041;-62
2023/10/02 13:51:19;;;;;;;14.30;8.63;;;25.60;56.40;;;;;;5024038;28;20376;-62
2023/10/02 13:53:46;;;;;;;11.13;7.13;;;25.60;56.50;;;;;;5051198;28;20025;-61
2023/10/02 13:56:19;;;;;;;12.27;7.40;;;25.60;56.50;;;;;;5050386;28;20367;-61
2023/10/02 13:58:50;;;;;;;11.85;7.45;;;25.60;56.60;;;;;;5051580;28;20051;-67
2023/10/02 14:01:19;;;;;;;12.10;7.85;;;25.60;56.60;;;;;;5053273;28;20417;-59
2023/10/02 14:03:49;;;;;;;12.23;7.43;;;25.60;56.70;;;;;;5035675;28;20170;-63
2023/10/02 14:06:18;;;;;;;12.15;7.65;;;25.50;56.70;;;;;;5023578;28;20094;-60
2023/10/02 14:08:44;;;;;;;11.43;7.75;;;25.50;56.80;;;;;;5019894;28;20409;-64
2023/10/02 14:11:15;;;;;;;10.93;7.13;;;25.50;56.80;;;;;;5034998;28;20074;-60
2023/10/02 14:13:42;;;;;;;11.48;6.70;;;25.50;56.90;;;;;;5054982;28;20166;-60
2023/10/02 14:16:11;;;;;;;12.27;7.35;;;25.50;57.00;;;;;;5054683;28;20033;-61
2023/10/02 14:18:41;;;;;;;10.52;7.38;;;25.50;57.00;;;;;;5027530;28;20024;-62
2023/10/02 14:21:09;;;;;;;10.93;6.90;;;25.50;57.10;;;;;;5054233;28;20100;-64
2023/10/02 14:23:36;;;;;;;11.90;7.68;;;25.50;57.10;;;;;;5031153;28;20183;-62
2023/10/02 14:26:07;;;;;;;12.70;7.47;;;25.50;57.10;;;;;;5034635;28;20082;-62
2023/10/02 14:28:33;;;;;;;12.20;8.00;;;25.50;57.30;;;;;;5034573;28;20033;-61